Time;durP1;ratioP1;P1;durP2;ratioP2;P2;SDS_P1;SDS_P2;PMS_P1;PMS_P2;Temp;Humidity;BMP_temperature;BMP_pressure;BME280_temperature;BME280_humidity;BME280_pressure;Samples;Min_cycle;Max_cycle;Signal;HPM_P1;HPM_P2
2023/02/06 00:00:48;;;;;;;0.20;0.00;;;10.90;99.90;;;;;;21226168;27;20748;-70
2023/02/06 00:10:54;;;;;;;0.20;0.00;;;11.40;99.90;;;;;;21242767;27;20435;-69
2023/02/06 00:20:58;;;;;;;0.20;0.00;;;11.10;99.90;;;;;;21242154;27;20460;-67
2023/02/06 00:31:05;;;;;;;0.20;0.00;;;10.80;99.90;;;;;;21241132;27;20405;-68
2023/02/06 00:41:09;;;;;;;0.20;0.00;;;10.70;99.90;;;;;;21240521;27;20756;-68
2023/02/06 00:51:14;;;;;;;0.20;0.10;;;11.40;99.90;;;;;;21238798;27;20476;-68
2023/02/06 01:01:18;;;;;;;0.20;0.10;;;11.30;99.90;;;;;;21234630;27;20421;-64
2023/02/06 01:11:26;;;;;;;0.20;0.00;;;11.40;99.90;;;;;;21237742;27;20718;-69
2023/02/06 01:21:30;;;;;;;0.20;0.10;;;11.00;99.90;;;;;;21235950;27;20810;-68
2023/02/06 01:31:35;;;;;;;0.20;0.10;;;10.80;99.90;;;;;;21235125;27;20401;-67
2023/02/06 01:41:39;;;;;;;0.20;0.10;;;10.60;99.90;;;;;;21235671;27;20433;-67
2023/02/06 01:51:44;;;;;;;0.20;0.00;;;10.20;99.90;;;;;;21221292;27;20873;-68
2023/02/06 02:01:48;;;;;;;0.20;0.10;;;9.90;99.90;;;;;;21146518;28;20452;-67
2023/02/06 02:11:53;;;;;;;0.20;0.10;;;9.60;99.90;;;;;;21129517;28;20907;-67
2023/02/06 02:22:46;;;;;;;0.20;0.10;;;9.40;99.90;;;;;;21145786;28;20807;-68
2023/02/06 02:33:13;;;;;;;0.20;0.10;;;9.30;99.90;;;;;;21010364;28;20455;-68
2023/02/06 02:43:32;;;;;;;0.20;0.10;;;9.10;99.90;;;;;;21127062;28;20398;-67
2023/02/06 02:53:37;;;;;;;0.20;0.00;;;9.30;99.90;;;;;;21162631;27;20393;-67
2023/02/06 03:03:43;;;;;;;0.20;0.10;;;9.80;99.90;;;;;;21230014;27;20718;-68
2023/02/06 03:13:53;;;;;;;0.20;0.10;;;9.30;99.90;;;;;;21227441;28;20399;-68
2023/02/06 03:24:04;;;;;;;0.20;0.08;;;9.10;99.90;;;;;;21225861;27;20990;-67
2023/02/06 03:34:12;;;;;;;0.20;0.10;;;9.30;99.90;;;;;;21243950;27;20799;-68
2023/02/06 03:44:22;;;;;;;0.20;0.10;;;9.60;99.90;;;;;;21243131;27;20487;-67
2023/02/06 03:54:27;;;;;;;0.20;0.10;;;9.50;99.90;;;;;;21243829;27;20448;-68
2023/02/06 04:04:37;;;;;;;0.20;0.10;;;9.30;99.90;;;;;;21208530;27;20408;-68
2023/02/06 04:14:41;;;;;;;0.20;0.00;;;9.40;99.90;;;;;;21157547;27;20394;-68
2023/02/06 04:24:46;;;;;;;0.20;0.10;;;9.40;99.90;;;;;;21156135;28;20436;-68
2023/02/06 04:34:50;;;;;;;0.20;0.10;;;9.50;99.90;;;;;;21155836;28;20414;-69
2023/02/06 04:44:55;;;;;;;0.20;0.10;;;9.60;99.90;;;;;;21153701;28;20760;-69
2023/02/06 04:54:59;;;;;;;0.20;0.10;;;9.60;99.90;;;;;;21153403;28;20799;-69
2023/02/06 05:05:05;;;;;;;0.20;0.00;;;9.40;99.90;;;;;;21152857;28;20415;-69
2023/02/06 05:15:10;;;;;;;0.20;0.10;;;9.40;99.90;;;;;;21153483;28;20778;-68
2023/02/06 05:25:15;;;;;;;0.20;0.10;;;9.50;99.90;;;;;;21151994;28;20515;-68
2023/02/06 05:35:19;;;;;;;0.20;0.10;;;10.40;99.90;;;;;;21151076;27;20403;-67
2023/02/06 05:45:25;;;;;;;0.20;0.10;;;9.90;99.90;;;;;;21150142;28;20421;-68
2023/02/06 05:55:28;;;;;;;0.20;0.10;;;9.10;99.90;;;;;;21130222;28;20882;-67
2023/02/06 06:05:34;;;;;;;0.20;0.10;;;8.80;99.90;;;;;;21146177;28;20938;-67
2023/02/06 06:15:38;;;;;;;0.20;0.10;;;9.20;99.90;;;;;;21147248;28;20417;-67
2023/02/06 06:25:43;;;;;;;0.20;0.10;;;9.20;99.90;;;;;;21225361;27;20401;-67
2023/02/06 06:35:47;;;;;;;0.20;0.10;;;9.20;99.90;;;;;;21229738;27;20832;-62
2023/02/06 06:45:52;;;;;;;0.20;0.10;;;9.00;99.90;;;;;;21227709;27;20434;-67
2023/02/06 06:55:56;;;;;;;0.20;0.00;;;9.10;99.90;;;;;;21225076;27;20504;-64
2023/02/06 07:06:01;;;;;;;0.20;0.00;;;9.30;99.90;;;;;;21223018;27;20393;-67
2023/02/06 07:16:05;;;;;;;0.20;0.10;;;9.40;99.90;;;;;;21225625;28;20462;-68
2023/02/06 07:26:10;;;;;;;0.20;0.10;;;9.20;99.90;;;;;;21221998;27;20416;-68
2023/02/06 07:36:17;;;;;;;0.20;0.10;;;9.20;99.90;;;;;;21226342;28;20403;-68
2023/02/06 07:46:22;;;;;;;0.20;0.10;;;9.20;99.90;;;;;;21225241;28;20419;-68
2023/02/06 07:56:26;;;;;;;0.20;0.10;;;9.20;99.90;;;;;;21224030;28;20492;-68
2023/02/06 08:06:31;;;;;;;0.20;0.10;;;9.60;99.90;;;;;;21224808;28;20407;-67
2023/02/06 08:16:35;;;;;;;0.20;0.10;;;9.90;99.90;;;;;;21235667;27;20401;-67
2023/02/06 08:26:42;;;;;;;0.20;0.10;;;9.80;99.90;;;;;;21237337;27;20397;-69
2023/02/06 08:36:46;;;;;;;0.20;0.10;;;9.90;99.90;;;;;;21238906;27;20404;-69
2023/02/06 08:46:52;;;;;;;0.20;0.10;;;10.10;99.90;;;;;;21238140;27;20469;-69
2023/02/06 08:57:12;;;;;;;0.20;0.10;;;10.40;99.90;;;;;;21236075;27;20944;-70
2023/02/06 09:07:17;;;;;;;0.20;0.10;;;10.50;99.90;;;;;;21237446;27;20416;-68
2023/02/06 09:17:20;;;;;;;0.20;0.10;;;10.40;99.90;;;;;;21235265;27;20385;-69
2023/02/06 09:27:26;;;;;;;0.20;0.10;;;11.40;99.90;;;;;;21232612;27;20766;-69
2023/02/06 09:37:29;;;;;;;0.20;0.00;;;11.70;99.90;;;;;;21218004;27;20394;-69
2023/02/06 09:47:39;;;;;;;0.20;0.10;;;11.40;99.90;;;;;;21148848;28;20413;-68
2023/02/06 09:57:51;;;;;;;0.20;0.10;;;11.20;99.90;;;;;;21145980;28;20394;-67
2023/02/06 10:08:11;;;;;;;0.20;0.10;;;11.10;99.90;;;;;;21143717;28;20968;-68
2023/02/06 10:18:26;;;;;;;0.20;0.10;;;11.60;99.90;;;;;;21144287;28;20496;-70
2023/02/06 10:28:34;;;;;;;0.20;0.10;;;11.60;99.90;;;;;;21124499;28;20745;-68
2023/02/06 10:39:09;;;;;;;0.20;0.10;;;11.00;99.90;;;;;;21142050;28;20440;-69
2023/02/06 10:49:22;;;;;;;0.20;0.10;;;11.10;99.90;;;;;;21141154;28;20411;-69
2023/02/06 10:59:30;;;;;;;0.20;0.10;;;11.00;99.90;;;;;;21143700;28;20447;-69
2023/02/06 11:09:35;;;;;;;0.20;0.10;;;10.90;99.90;;;;;;21142313;28;20398;-71
2023/02/06 11:19:43;;;;;;;0.20;0.10;;;10.60;99.90;;;;;;21142332;28;20408;-69
2023/02/06 11:29:49;;;;;;;0.20;0.10;;;10.50;99.90;;;;;;21145862;28;20415;-69
2023/02/06 11:39:54;;;;;;;0.20;0.10;;;10.60;99.90;;;;;;21139254;28;20391;-69
2023/02/06 11:50:21;;;;;;;0.20;0.10;;;10.90;99.90;;;;;;21225181;27;20796;-68
2023/02/06 12:00:25;;;;;;;0.20;0.10;;;11.00;99.90;;;;;;21224988;27;20926;-68
2023/02/06 12:10:34;;;;;;;0.20;0.10;;;10.30;99.90;;;;;;21241974;27;20401;-70
2023/02/06 12:20:48;;;;;;;0.20;0.10;;;10.20;99.90;;;;;;21239545;27;20404;-67
2023/02/06 12:30:57;;;;;;;0.20;0.10;;;10.00;99.90;;;;;;21182439;27;20403;-67
2023/02/06 12:41:15;;;;;;;0.20;0.00;;;10.30;99.90;;;;;;21152263;28;20406;-67
2023/02/06 12:51:25;;;;;;;0.20;0.03;;;10.80;99.90;;;;;;21234065;27;20381;-68
2023/02/06 13:01:42;;;;;;;0.20;0.10;;;11.90;99.90;;;;;;21238071;27;20495;-69
2023/02/06 13:11:47;;;;;;;0.20;0.08;;;12.90;99.90;;;;;;21219096;27;20420;-68
2023/02/06 13:21:53;;;;;;;0.20;0.10;;;12.90;99.90;;;;;;21226865;27;20477;-68
2023/02/06 13:32:30;;;;;;;0.20;0.10;;;11.90;99.90;;;;;;21170664;27;20406;-67
2023/02/06 13:42:43;;;;;;;0.20;0.00;;;11.60;99.90;;;;;;21147349;27;20438;-68
2023/02/06 13:52:56;;;;;;;0.20;0.10;;;11.40;99.90;;;;;;21228763;27;20401;-67
2023/02/06 14:03:13;;;;;;;0.20;0.10;;;11.30;99.90;;;;;;21226714;27;20882;-66
2023/02/06 14:13:31;;;;;;;0.20;0.10;;;11.00;99.90;;;;;;21226156;27;20397;-68
2023/02/06 14:23:59;;;;;;;0.20;0.10;;;10.80;99.90;;;;;;21227279;27;20882;-68
2023/02/06 14:34:22;;;;;;;0.20;0.10;;;11.10;99.90;;;;;;21171818;27;20485;-68
2023/02/06 14:44:31;;;;;;;0.20;0.00;;;10.90;99.90;;;;;;21217504;27;20408;-67
2023/02/06 14:54:37;;;;;;;0.20;0.10;;;13.90;99.90;;;;;;21217349;27;20739;-67
2023/02/06 15:04:47;;;;;;;0.20;0.10;;;13.50;99.90;;;;;;21202398;27;20477;-67
2023/02/06 15:14:53;;;;;;;0.20;0.10;;;11.40;99.90;;;;;;21205883;27;20401;-68
2023/02/06 15:25:11;;;;;;;0.20;0.10;;;12.00;99.90;;;;;;21230217;27;21017;-67
2023/02/06 15:35:21;;;;;;;0.20;0.10;;;11.20;99.90;;;;;;21220174;27;20437;-67
2023/02/06 15:45:29;;;;;;;0.20;0.10;;;11.40;99.90;;;;;;21219420;27;20413;-68
2023/02/06 15:55:36;;;;;;;0.20;0.10;;;11.30;99.90;;;;;;21238479;27;20424;-68
2023/02/06 16:05:43;;;;;;;0.20;0.10;;;10.50;99.90;;;;;;21236186;27;20519;-66
2023/02/06 16:16:18;;;;;;;0.20;0.10;;;10.70;99.90;;;;;;21235853;27;20404;-68
2023/02/06 16:26:26;;;;;;;0.20;0.10;;;10.50;99.90;;;;;;21231919;27;20810;-67
2023/02/06 16:36:32;;;;;;;0.20;0.10;;;10.30;99.90;;;;;;21236466;27;20472;-68
2023/02/06 16:46:37;;;;;;;0.20;0.10;;;9.90;99.90;;;;;;21191683;27;20968;-67
2023/02/06 16:56:41;;;;;;;0.20;0.10;;;9.60;99.90;;;;;;21237730;27;20527;-67
2023/02/06 17:06:46;;;;;;;0.20;0.10;;;9.70;99.90;;;;;;21238832;27;20412;-68
2023/02/06 17:16:50;;;;;;;0.20;0.10;;;9.70;99.90;;;;;;21236377;27;20457;-69
2023/02/06 17:26:57;;;;;;;0.20;0.10;;;9.50;99.90;;;;;;21235925;27;20416;-66
2023/02/06 17:37:00;;;;;;;0.20;0.10;;;9.30;99.90;;;;;;21233859;27;20397;-67
2023/02/06 17:47:06;;;;;;;0.20;0.10;;;9.20;99.90;;;;;;21228547;27;20448;-68
2023/02/06 17:57:12;;;;;;;0.20;0.10;;;9.10;99.90;;;;;;21230916;27;20920;-67
2023/02/06 18:07:17;;;;;;;0.20;0.10;;;8.90;99.90;;;;;;21230087;27;20922;-67
2023/02/06 18:17:21;;;;;;;0.20;0.10;;;9.10;99.90;;;;;;21232203;27;20405;-68
2023/02/06 18:27:27;;;;;;;0.20;0.10;;;9.10;99.90;;;;;;21231035;27;20409;-67
2023/02/06 18:37:30;;;;;;;0.20;0.10;;;9.10;99.90;;;;;;21228919;27;20409;-69
2023/02/06 18:47:37;;;;;;;0.20;0.10;;;9.20;99.90;;;;;;21230294;27;20401;-67
2023/02/06 18:57:41;;;;;;;0.20;0.10;;;9.30;99.90;;;;;;21229036;27;20397;-68
2023/02/06 19:07:51;;;;;;;0.20;0.10;;;9.50;99.90;;;;;;21227830;27;20491;-67
2023/02/06 19:17:55;;;;;;;0.20;0.10;;;9.60;99.90;;;;;;21206722;28;20392;-67
2023/02/06 19:28:00;;;;;;;0.20;0.10;;;9.70;99.90;;;;;;21204785;28;20436;-67
2023/02/06 19:38:04;;;;;;;0.20;0.10;;;9.60;99.90;;;;;;21205580;28;20997;-68
2023/02/06 19:48:12;;;;;;;1.85;1.70;;;9.60;99.90;;;;;;21223958;27;20408;-69
2023/02/06 19:58:16;;;;;;;0.20;0.10;;;9.60;99.90;;;;;;21223251;28;20488;-67
2023/02/06 20:08:21;;;;;;;0.20;0.10;;;9.60;99.90;;;;;;21227731;27;20416;-68
2023/02/06 20:18:26;;;;;;;0.20;0.10;;;9.70;99.90;;;;;;21238363;27;20441;-68
2023/02/06 20:28:32;;;;;;;0.20;0.10;;;9.70;99.90;;;;;;21237835;27;20409;-68
2023/02/06 20:38:36;;;;;;;0.20;0.10;;;9.70;99.90;;;;;;21176595;27;20408;-68
2023/02/06 20:48:41;;;;;;;0.20;0.07;;;9.80;99.90;;;;;;21196276;27;20503;-67
2023/02/06 20:58:46;;;;;;;0.20;0.10;;;10.00;99.90;;;;;;21218412;27;20504;-68
2023/02/06 21:08:51;;;;;;;0.20;0.10;;;10.10;99.90;;;;;;21216292;27;20899;-66
2023/02/06 21:18:56;;;;;;;0.20;0.00;;;10.30;99.90;;;;;;21231525;27;20497;-69
2023/02/06 21:29:02;;;;;;;0.20;0.10;;;10.30;99.90;;;;;;21231341;27;20423;-69
2023/02/06 21:39:07;;;;;;;0.20;0.10;;;10.30;99.90;;;;;;21230008;27;20399;-72
2023/02/06 21:49:13;;;;;;;0.20;0.10;;;10.30;99.90;;;;;;21225246;27;20409;-70
2023/02/06 21:59:17;;;;;;;0.20;0.10;;;10.20;99.90;;;;;;21233732;27;20401;-68
2023/02/06 22:09:22;;;;;;;0.20;0.10;;;10.30;99.90;;;;;;21234359;27;20409;-68
2023/02/06 22:19:26;;;;;;;0.20;0.10;;;10.20;99.90;;;;;;21215685;27;20472;-68
2023/02/06 22:29:32;;;;;;;0.20;0.10;;;10.20;99.90;;;;;;21214106;27;20458;-66
2023/02/06 22:39:36;;;;;;;0.20;0.10;;;10.30;99.90;;;;;;21230436;27;20476;-67
2023/02/06 22:49:42;;;;;;;0.20;0.00;;;10.30;99.90;;;;;;21230036;27;20446;-68
2023/02/06 22:59:48;;;;;;;0.20;0.10;;;10.30;99.90;;;;;;21230606;27;20387;-66
2023/02/06 23:09:53;;;;;;;0.20;0.10;;;10.30;99.90;;;;;;21230407;27;21027;-67
2023/02/06 23:19:57;;;;;;;0.20;0.10;;;10.30;99.90;;;;;;21230786;27;20766;-65
2023/02/06 23:30:02;;;;;;;0.20;0.10;;;10.20;99.90;;;;;;21229510;27;20741;-65
2023/02/06 23:40:07;;;;;;;0.20;0.00;;;10.30;99.90;;;;;;21158502;27;20386;-67
2023/02/06 23:50:12;;;;;;;0.20;0.10;;;10.30;99.90;;;;;;21236097;27;20417;-67
